Terminal Aerodrome Forecast
Issued by NWS

Current Version | Previous Version | Text Only | Print | Product List | Glossary Off
Versions: 1 2 3 4 5 6 7 8 9 10 11 12 13 14 15 16 17 18 19 20 21 22 23 24

000
FTUS41 KILN 251126
TAFLUK
TAF
KLUK 251126Z 2512/2612 VRB03KT P6SM SCT130 BKN200
     FM251400 19009KT P6SM BKN130
     FM260000 15005KT P6SM VCSH BKN120
     FM260400 14005KT P6SM -SHRA BKN090
     FM260900 16005KT 5SM -SHRA OVC050=

USA.gov is the U.S. government's official web portal to all federal, state and local government web resources and services.